Time;durP1;ratioP1;P1;durP2;ratioP2;P2;SDS_P1;SDS_P2;PMS_P1;PMS_P2;Temp;Humidity;BMP_temperature;BMP_pressure;BME280_temperature;BME280_humidity;BME280_pressure;Samples;Min_cycle;Max_cycle;Signal;HPM_P1;HPM_P2
2022/03/17 00:01:50;;;;;;;33.60;18.73;;;5.60;99.90;;;;;;5039080;28;20183;-58
2022/03/17 00:04:16;;;;;;;36.80;21.23;;;5.60;99.90;;;;;;5045590;28;20190;-59
2022/03/17 00:06:41;;;;;;;35.30;19.10;;;5.60;99.90;;;;;;5039310;28;20210;-59
2022/03/17 00:09:07;;;;;;;37.23;20.00;;;5.60;99.90;;;;;;5045298;28;20206;-59
2022/03/17 00:11:34;;;;;;;33.80;19.97;;;5.60;99.90;;;;;;5044473;28;20183;-59
2022/03/17 00:14:01;;;;;;;34.80;18.23;;;5.60;99.90;;;;;;5046338;28;20556;-59
2022/03/17 00:16:28;;;;;;;34.20;18.87;;;5.50;99.90;;;;;;5049405;28;20426;-60
2022/03/17 00:18:55;;;;;;;33.40;19.03;;;5.50;99.90;;;;;;5049168;28;20453;-59
2022/03/17 00:21:22;;;;;;;33.67;19.50;;;5.50;99.90;;;;;;5046737;28;20464;-60
2022/03/17 00:23:48;;;;;;;31.47;19.47;;;5.50;99.90;;;;;;5060559;28;20443;-58
2022/03/17 00:26:14;;;;;;;31.87;17.83;;;5.50;99.90;;;;;;5038905;28;20458;-59
2022/03/17 00:28:39;;;;;;;32.70;18.87;;;5.50;99.90;;;;;;5044212;28;20985;-60
2022/03/17 00:31:05;;;;;;;38.33;19.80;;;5.40;99.90;;;;;;5048485;28;20198;-60
2022/03/17 00:33:31;;;;;;;31.83;18.10;;;5.40;99.90;;;;;;5049035;28;20508;-59
2022/03/17 00:35:56;;;;;;;34.23;18.43;;;5.40;99.90;;;;;;5043845;28;20709;-60
2022/03/17 00:38:22;;;;;;;36.07;20.30;;;5.40;99.90;;;;;;5040718;28;20287;-60
2022/03/17 00:40:47;;;;;;;39.60;18.77;;;5.40;99.90;;;;;;5030120;28;20183;-60
2022/03/17 00:43:15;;;;;;;35.60;19.73;;;5.40;99.90;;;;;;5033501;28;20209;-59
2022/03/17 00:45:42;;;;;;;37.60;19.23;;;5.40;99.90;;;;;;5040857;28;20566;-59
2022/03/17 00:48:08;;;;;;;35.00;20.33;;;5.40;99.90;;;;;;5042066;28;20455;-59
2022/03/17 00:50:34;;;;;;;35.13;18.60;;;5.40;99.90;;;;;;5060259;28;20970;-60
2022/03/17 00:53:01;;;;;;;34.70;18.57;;;5.30;99.90;;;;;;5040950;28;20171;-60
2022/03/17 00:55:27;;;;;;;37.87;19.77;;;5.30;99.90;;;;;;5043105;28;20421;-60
2022/03/17 00:57:52;;;;;;;34.00;18.67;;;5.30;99.90;;;;;;5049250;28;20437;-59
2022/03/17 01:00:20;;;;;;;34.37;18.40;;;5.30;99.90;;;;;;5040982;28;20445;-59
2022/03/17 01:02:51;;;;;;;31.50;17.17;;;5.30;99.90;;;;;;5055205;28;20552;-60
2022/03/17 01:05:17;;;;;;;37.93;19.37;;;5.20;99.90;;;;;;5044965;28;20810;-60
2022/03/17 01:07:44;;;;;;;35.47;18.63;;;5.20;99.90;;;;;;5045127;28;20991;-59
2022/03/17 01:10:12;;;;;;;31.60;18.17;;;5.20;99.90;;;;;;5047121;28;20421;-59
2022/03/17 01:12:38;;;;;;;32.57;18.00;;;5.20;99.90;;;;;;5039419;28;20433;-59
2022/03/17 01:15:05;;;;;;;33.97;18.80;;;5.20;99.90;;;;;;5061958;28;20426;-60
2022/03/17 01:17:31;;;;;;;29.20;18.13;;;5.20;99.90;;;;;;5048501;28;20445;-59
2022/03/17 01:19:56;;;;;;;34.90;19.37;;;5.20;99.90;;;;;;5037481;28;20434;-60
2022/03/17 01:22:23;;;;;;;40.53;19.83;;;5.20;99.90;;;;;;5035972;28;20441;-61
2022/03/17 01:24:51;;;;;;;35.00;19.53;;;5.10;99.90;;;;;;5031609;28;20258;-60
2022/03/17 01:27:20;;;;;;;34.90;19.43;;;5.10;99.90;;;;;;5043557;28;20457;-60
2022/03/17 01:29:50;;;;;;;34.50;18.60;;;5.10;99.90;;;;;;5051750;28;20992;-59
2022/03/17 01:32:17;;;;;;;35.27;18.00;;;5.10;99.90;;;;;;5050328;28;20432;-59
2022/03/17 01:34:43;;;;;;;34.97;18.33;;;5.10;99.90;;;;;;5051465;28;20904;-59
2022/03/17 01:37:09;;;;;;;35.83;18.83;;;5.00;99.90;;;;;;5049959;28;20464;-60
2022/03/17 01:39:36;;;;;;;34.60;18.17;;;5.10;99.90;;;;;;5044243;28;20508;-59
2022/03/17 01:42:05;;;;;;;35.03;17.90;;;5.00;99.90;;;;;;5043889;28;20556;-60
2022/03/17 01:44:31;;;;;;;31.53;18.83;;;5.00;99.90;;;;;;5067966;28;20869;-59
2022/03/17 01:49:42;;;;;;;32.73;19.30;;;5.00;99.90;;;;;;5052779;28;20985;-60
2022/03/17 01:52:08;;;;;;;36.97;20.03;;;5.00;99.90;;;;;;5044245;28;20421;-59
2022/03/17 01:54:35;;;;;;;37.77;19.47;;;5.00;99.90;;;;;;5051264;28;20425;-59
2022/03/17 01:57:03;;;;;;;38.30;19.37;;;5.00;99.90;;;;;;5050585;28;20785;-60
2022/03/17 01:59:31;;;;;;;31.63;18.40;;;5.00;99.90;;;;;;5036499;28;20434;-59
2022/03/17 02:01:57;;;;;;;37.83;19.30;;;5.00;99.90;;;;;;5051259;28;20460;-58
2022/03/17 02:04:24;;;;;;;36.37;20.00;;;5.00;99.90;;;;;;5052286;28;21098;-58
2022/03/17 02:06:50;;;;;;;35.87;20.23;;;5.00;99.90;;;;;;5059042;28;20265;-58
2022/03/17 02:09:18;;;;;;;35.80;20.53;;;5.00;99.90;;;;;;5051302;28;20493;-58
2022/03/17 02:14:28;;;;;;;37.20;20.50;;;5.00;99.90;;;;;;5040227;28;20983;-60
2022/03/17 02:16:54;;;;;;;33.43;18.33;;;5.00;99.90;;;;;;5046343;28;20529;-60
2022/03/17 02:19:23;;;;;;;37.17;19.17;;;4.90;99.90;;;;;;5049857;28;20495;-59
2022/03/17 02:21:49;;;;;;;35.03;19.27;;;4.90;99.90;;;;;;5051219;28;20437;-59
2022/03/17 02:27:02;;;;;;;37.47;18.67;;;4.90;99.90;;;;;;5051666;28;20518;-60
2022/03/17 02:29:27;;;;;;;30.50;18.20;;;4.90;99.90;;;;;;5068407;28;20421;-59
2022/03/17 02:31:53;;;;;;;36.20;19.00;;;4.90;99.90;;;;;;5044737;28;20436;-60
2022/03/17 02:34:19;;;;;;;36.40;20.00;;;4.90;99.90;;;;;;5051460;28;20173;-59
2022/03/17 02:36:50;;;;;;;35.63;19.17;;;4.90;99.90;;;;;;5062372;28;20656;-59
2022/03/17 02:39:18;;;;;;;37.97;20.90;;;4.90;99.90;;;;;;5046516;28;20519;-59
2022/03/17 02:41:43;;;;;;;35.90;19.83;;;4.90;99.90;;;;;;5039815;28;20425;-59
2022/03/17 02:44:10;;;;;;;33.37;19.00;;;4.90;99.90;;;;;;5051199;28;20413;-59
2022/03/17 02:46:36;;;;;;;36.50;19.90;;;4.90;99.90;;;;;;5051235;28;20457;-58
2022/03/17 02:49:03;;;;;;;39.07;19.73;;;4.80;99.90;;;;;;5041455;28;20451;-59
2022/03/17 02:51:29;;;;;;;39.20;19.63;;;4.80;99.90;;;;;;5044337;28;20703;-58
2022/03/17 02:53:54;;;;;;;35.90;20.40;;;4.80;99.90;;;;;;5048466;28;21034;-59
2022/03/17 02:56:20;;;;;;;47.40;20.00;;;4.80;99.90;;;;;;5051754;28;20171;-59
2022/03/17 02:58:46;;;;;;;40.93;20.27;;;4.80;99.90;;;;;;5047995;28;20211;-59
2022/03/17 03:01:11;;;;;;;36.20;19.53;;;4.80;99.90;;;;;;5049462;28;20261;-58
2022/03/17 03:03:37;;;;;;;34.17;17.87;;;4.80;99.90;;;;;;5047291;28;20228;-60
2022/03/17 03:06:03;;;;;;;36.87;20.57;;;4.80;99.90;;;;;;5049938;28;20187;-58
2022/03/17 03:08:29;;;;;;;39.10;20.67;;;4.80;99.90;;;;;;5045146;28;20198;-59
2022/03/17 03:10:56;;;;;;;34.13;19.47;;;4.80;99.90;;;;;;5049508;28;21011;-59
2022/03/17 03:13:22;;;;;;;38.80;20.50;;;4.80;99.90;;;;;;5034711;28;20259;-59
2022/03/17 03:15:50;;;;;;;35.47;20.10;;;4.80;99.90;;;;;;5036336;28;21001;-59
2022/03/17 03:18:17;;;;;;;35.97;19.63;;;4.80;99.90;;;;;;5044063;28;20241;-59
2022/03/17 03:20:42;;;;;;;36.37;20.63;;;4.80;99.90;;;;;;5043487;28;20436;-59
2022/03/17 03:23:08;;;;;;;39.80;20.27;;;4.80;99.90;;;;;;5045157;28;20430;-59
2022/03/17 03:25:34;;;;;;;38.47;20.03;;;4.80;99.90;;;;;;5043931;28;20400;-59
2022/03/17 03:28:07;;;;;;;35.27;19.90;;;4.80;99.90;;;;;;5044224;28;20660;-59
2022/03/17 03:30:33;;;;;;;34.73;19.23;;;4.80;99.90;;;;;;5044305;28;20178;-60
2022/03/17 03:32:59;;;;;;;35.67;19.80;;;4.80;99.90;;;;;;5065756;28;20531;-59
2022/03/17 03:38:09;;;;;;;35.63;19.57;;;4.80;99.90;;;;;;5042502;28;20729;-60
2022/03/17 03:40:35;;;;;;;32.47;18.90;;;4.80;99.90;;;;;;5034942;28;20438;-60
2022/03/17 03:43:01;;;;;;;34.10;19.73;;;4.80;99.90;;;;;;5050379;28;20425;-60
2022/03/17 03:45:27;;;;;;;35.33;18.60;;;4.80;99.90;;;;;;5050054;28;20195;-59
2022/03/17 03:47:52;;;;;;;38.23;19.67;;;4.80;99.90;;;;;;5040951;28;20199;-60
2022/03/17 03:50:18;;;;;;;34.33;19.23;;;4.80;99.90;;;;;;5048905;28;20613;-59
2022/03/17 03:52:44;;;;;;;38.07;20.70;;;4.70;99.90;;;;;;5048365;28;20190;-60
2022/03/17 03:55:10;;;;;;;38.17;19.87;;;4.80;99.90;;;;;;5043974;28;20183;-60
2022/03/17 03:57:36;;;;;;;36.10;19.13;;;4.70;99.90;;;;;;5039085;28;20539;-60
2022/03/17 04:00:19;;;;;;;36.40;19.73;;;4.70;99.90;;;;;;5037725;28;20401;-60
2022/03/17 04:02:44;;;;;;;37.40;20.50;;;4.70;99.90;;;;;;5044195;28;20504;-59
2022/03/17 04:05:10;;;;;;;41.47;21.17;;;4.70;99.90;;;;;;5045167;28;20512;-61
2022/03/17 04:07:37;;;;;;;32.60;19.03;;;4.70;99.90;;;;;;5046242;28;20246;-61
2022/03/17 04:10:05;;;;;;;36.27;19.97;;;4.70;99.90;;;;;;5049541;28;20436;-60
2022/03/17 04:12:30;;;;;;;39.50;20.17;;;4.70;99.90;;;;;;5049222;28;20422;-60
2022/03/17 04:14:57;;;;;;;38.93;20.93;;;4.70;99.90;;;;;;5039444;28;20512;-60
2022/03/17 04:17:23;;;;;;;37.73;20.20;;;4.70;99.90;;;;;;5063827;28;20736;-60
2022/03/17 04:19:49;;;;;;;42.10;20.90;;;4.70;99.90;;;;;;5047472;28;20464;-60
2022/03/17 04:22:15;;;;;;;33.70;19.10;;;4.70;99.90;;;;;;5048865;28;20449;-60
2022/03/17 04:24:40;;;;;;;35.60;20.67;;;4.70;99.90;;;;;;5064226;28;20185;-60
2022/03/17 04:27:06;;;;;;;36.93;21.33;;;4.70;99.90;;;;;;5047955;28;20226;-59
2022/03/17 04:29:32;;;;;;;38.73;20.40;;;4.70;99.90;;;;;;5050492;28;20172;-59
2022/03/17 04:31:58;;;;;;;42.13;20.73;;;4.70;99.90;;;;;;5048706;28;20929;-60
2022/03/17 04:34:24;;;;;;;39.53;20.80;;;4.70;99.90;;;;;;5044483;28;20433;-60
2022/03/17 04:36:50;;;;;;;37.63;20.80;;;4.70;99.90;;;;;;5045253;28;20184;-59
2022/03/17 04:39:16;;;;;;;35.77;20.43;;;4.70;99.90;;;;;;5035383;28;20632;-61
2022/03/17 04:41:42;;;;;;;38.53;19.70;;;4.70;99.90;;;;;;5034775;28;20496;-58
2022/03/17 04:44:09;;;;;;;39.43;19.47;;;4.70;99.90;;;;;;5048513;28;20171;-60
2022/03/17 04:46:35;;;;;;;37.60;20.57;;;4.70;99.90;;;;;;5047622;28;20453;-61
2022/03/17 04:49:00;;;;;;;37.00;20.67;;;4.70;99.90;;;;;;5038406;28;20898;-60
2022/03/17 04:51:26;;;;;;;39.07;21.63;;;4.70;99.90;;;;;;5034156;28;20465;-60
2022/03/17 04:53:52;;;;;;;35.20;19.53;;;4.70;99.90;;;;;;5035098;28;20202;-60
2022/03/17 04:56:18;;;;;;;41.40;21.30;;;4.60;99.90;;;;;;5048813;28;20249;-60
2022/03/17 04:58:44;;;;;;;38.03;21.83;;;4.70;99.90;;;;;;5045239;28;20214;-61
2022/03/17 05:01:12;;;;;;;41.00;21.90;;;4.70;99.90;;;;;;5054218;28;20224;-60
2022/03/17 05:03:39;;;;;;;39.20;21.40;;;4.70;99.90;;;;;;5047808;28;20520;-60
2022/03/17 05:06:05;;;;;;;37.87;21.37;;;4.70;99.90;;;;;;5044968;28;20528;-60
2022/03/17 05:08:35;;;;;;;36.83;20.43;;;4.60;99.90;;;;;;5044976;28;20525;-60
2022/03/17 05:11:01;;;;;;;41.60;21.53;;;4.60;99.90;;;;;;5040068;28;20414;-60
2022/03/17 05:13:27;;;;;;;37.73;21.33;;;4.60;99.90;;;;;;5046587;28;20785;-60
2022/03/17 05:15:53;;;;;;;40.20;19.93;;;4.60;99.90;;;;;;5033680;28;20441;-60
2022/03/17 05:18:19;;;;;;;37.23;20.80;;;4.60;99.90;;;;;;5041397;28;20198;-59
2022/03/17 05:20:45;;;;;;;36.90;20.00;;;4.60;99.90;;;;;;5042292;28;20437;-59
2022/03/17 05:23:13;;;;;;;42.07;20.13;;;4.60;99.90;;;;;;5045039;28;20991;-62
2022/03/17 05:25:40;;;;;;;40.60;20.67;;;4.60;99.90;;;;;;5045291;28;21031;-57
2022/03/17 05:28:08;;;;;;;40.30;22.13;;;4.60;99.90;;;;;;5038038;28;20858;-62
2022/03/17 05:30:34;;;;;;;37.10;20.30;;;4.60;99.90;;;;;;5039861;28;20426;-58
2022/03/17 05:33:00;;;;;;;42.70;22.03;;;4.60;99.90;;;;;;5041824;28;20430;-59
2022/03/17 05:35:26;;;;;;;42.03;21.30;;;4.60;99.90;;;;;;5037031;28;20480;-58
2022/03/17 05:37:53;;;;;;;49.60;22.80;;;4.60;99.90;;;;;;5040838;28;20464;-58
2022/03/17 05:40:19;;;;;;;44.93;22.23;;;4.60;99.90;;;;;;5035258;28;20431;-59
2022/03/17 05:42:47;;;;;;;50.93;21.80;;;4.60;99.90;;;;;;5032654;28;21405;-58
2022/03/17 05:45:17;;;;;;;42.73;22.10;;;4.60;99.90;;;;;;5036446;28;20430;-59
2022/03/17 05:47:45;;;;;;;42.80;20.93;;;4.60;99.90;;;;;;5032746;28;21192;-59
2022/03/17 05:50:14;;;;;;;37.30;20.63;;;4.60;99.90;;;;;;5037353;28;20532;-59
2022/03/17 05:52:44;;;;;;;37.67;21.97;;;4.60;99.90;;;;;;5037947;28;20418;-60
2022/03/17 05:55:12;;;;;;;44.63;21.30;;;4.60;99.90;;;;;;5054936;28;20428;-58
2022/03/17 05:57:42;;;;;;;37.93;20.23;;;4.60;99.90;;;;;;5043765;28;20457;-58
2022/03/17 06:00:11;;;;;;;45.77;21.50;;;4.60;99.90;;;;;;5037824;28;20433;-58
2022/03/17 06:02:38;;;;;;;49.60;22.80;;;4.60;99.90;;;;;;5040647;28;20429;-60
2022/03/17 06:05:05;;;;;;;44.33;23.07;;;4.50;99.90;;;;;;5057527;28;20516;-59
2022/03/17 06:07:44;;;;;;;46.97;23.37;;;4.50;99.90;;;;;;5043944;28;21122;-57
2022/03/17 06:10:12;;;;;;;37.47;21.43;;;4.50;99.90;;;;;;5056709;28;20436;-57
2022/03/17 06:12:39;;;;;;;42.73;23.53;;;4.50;99.90;;;;;;5041710;28;20509;-57
2022/03/17 06:15:07;;;;;;;44.73;24.27;;;4.50;99.90;;;;;;5040729;28;21003;-58
2022/03/17 06:17:44;;;;;;;41.33;22.90;;;4.50;99.90;;;;;;5042457;28;20444;-57
2022/03/17 06:20:15;;;;;;;38.53;21.90;;;4.50;99.90;;;;;;5045074;28;20489;-59
2022/03/17 06:22:44;;;;;;;40.80;22.43;;;4.50;99.90;;;;;;5047355;28;20436;-59
2022/03/17 06:25:13;;;;;;;40.87;21.90;;;4.60;99.90;;;;;;5043103;28;20479;-58
2022/03/17 06:27:39;;;;;;;38.97;22.10;;;4.60;99.90;;;;;;5051145;28;21064;-59
2022/03/17 06:30:07;;;;;;;42.33;22.73;;;4.60;99.90;;;;;;5048072;28;20428;-59
2022/03/17 06:32:39;;;;;;;37.20;21.67;;;4.60;99.90;;;;;;5062855;28;20425;-60
2022/03/17 06:35:08;;;;;;;55.20;21.60;;;4.60;99.90;;;;;;5062292;28;20494;-60
2022/03/17 06:37:33;;;;;;;44.23;24.27;;;4.60;99.90;;;;;;5051238;28;20437;-59
2022/03/17 06:39:59;;;;;;;44.60;23.50;;;4.70;99.90;;;;;;5039299;28;20510;-60
2022/03/17 06:42:25;;;;;;;40.33;21.63;;;4.70;99.90;;;;;;5045005;28;20261;-61
2022/03/17 06:44:50;;;;;;;40.37;22.27;;;4.70;99.90;;;;;;5049170;28;20205;-59
2022/03/17 06:47:16;;;;;;;44.17;24.07;;;4.70;99.90;;;;;;5039343;28;20208;-60
2022/03/17 06:49:42;;;;;;;43.97;23.43;;;4.80;99.90;;;;;;5041962;28;20174;-60
2022/03/17 06:52:07;;;;;;;43.60;23.50;;;4.80;99.90;;;;;;5051501;28;20258;-60
2022/03/17 06:54:33;;;;;;;44.37;22.57;;;4.80;99.90;;;;;;5043089;28;20171;-60
2022/03/17 06:56:59;;;;;;;43.37;24.97;;;4.90;99.90;;;;;;5042695;28;20686;-59
2022/03/17 06:59:25;;;;;;;45.60;23.20;;;4.90;99.90;;;;;;5049583;28;20900;-58
2022/03/17 07:01:51;;;;;;;44.57;24.50;;;4.90;99.90;;;;;;5050782;28;20498;-60
2022/03/17 07:04:16;;;;;;;44.67;24.17;;;5.00;99.90;;;;;;5047873;28;20509;-59
2022/03/17 07:06:42;;;;;;;44.77;23.80;;;5.00;99.90;;;;;;5047059;28;20205;-60
2022/03/17 07:09:07;;;;;;;43.50;23.20;;;5.00;99.90;;;;;;5049784;28;20183;-58
2022/03/17 07:11:33;;;;;;;43.43;23.83;;;5.10;99.90;;;;;;5050406;28;20789;-59
2022/03/17 07:13:59;;;;;;;48.47;22.30;;;5.10;99.90;;;;;;5045213;28;20176;-59
2022/03/17 07:16:24;;;;;;;47.83;23.63;;;5.20;99.90;;;;;;5040564;28;20647;-59
2022/03/17 07:18:50;;;;;;;48.23;24.33;;;5.30;99.90;;;;;;5049019;28;20721;-59
2022/03/17 07:21:16;;;;;;;43.93;24.47;;;5.30;99.90;;;;;;5042129;28;20685;-60
2022/03/17 07:23:42;;;;;;;45.67;24.40;;;5.40;99.90;;;;;;5048056;28;20178;-59
2022/03/17 07:26:08;;;;;;;44.87;24.00;;;5.50;99.90;;;;;;5048199;28;20191;-59
2022/03/17 07:28:33;;;;;;;59.47;26.93;;;5.60;99.90;;;;;;5049493;28;20488;-59
2022/03/17 07:30:59;;;;;;;50.00;26.70;;;5.70;99.90;;;;;;5046589;28;20186;-59
2022/03/17 07:33:25;;;;;;;50.23;27.50;;;5.70;99.90;;;;;;5051434;28;20717;-60
2022/03/17 07:35:50;;;;;;;48.43;27.33;;;5.80;99.90;;;;;;5049826;28;20262;-58
2022/03/17 07:38:16;;;;;;;63.87;27.17;;;5.90;99.90;;;;;;5046393;28;20198;-59
2022/03/17 07:40:42;;;;;;;54.33;28.27;;;6.00;99.90;;;;;;5046735;28;20171;-59
2022/03/17 07:43:08;;;;;;;57.07;28.00;;;6.10;99.90;;;;;;5049210;28;20505;-59
2022/03/17 07:45:34;;;;;;;63.40;31.30;;;6.20;99.90;;;;;;5049135;28;20552;-58
2022/03/17 07:48:00;;;;;;;64.93;32.93;;;6.30;99.90;;;;;;5061796;28;20212;-60
2022/03/17 07:50:26;;;;;;;67.37;29.50;;;6.40;99.90;;;;;;5046078;28;22306;-59
2022/03/17 07:52:51;;;;;;;53.00;28.20;;;6.40;99.90;;;;;;5059118;28;20464;-60
2022/03/17 07:55:17;;;;;;;67.90;32.13;;;6.50;99.90;;;;;;5063544;28;20400;-60
2022/03/17 07:57:43;;;;;;;54.43;27.23;;;6.60;99.90;;;;;;5069145;28;20186;-60
2022/03/17 08:00:13;;;;;;;55.50;28.67;;;6.60;99.90;;;;;;5048978;28;20425;-59
2022/03/17 08:02:42;;;;;;;52.90;27.43;;;6.60;99.90;;;;;;5046065;28;20163;-59
2022/03/17 08:05:13;;;;;;;50.90;27.77;;;6.60;99.90;;;;;;5045154;28;20900;-59
2022/03/17 08:07:39;;;;;;;50.10;27.17;;;6.60;99.90;;;;;;5047355;28;20449;-59
2022/03/17 08:10:06;;;;;;;50.80;26.93;;;6.60;99.90;;;;;;5046305;28;20429;-59
2022/03/17 08:12:33;;;;;;;51.90;28.30;;;6.70;99.90;;;;;;5046189;28;20433;-58
2022/03/17 08:14:59;;;;;;;56.27;31.23;;;6.70;99.90;;;;;;5047644;28;20445;-59
2022/03/17 08:17:25;;;;;;;57.80;30.43;;;6.70;99.90;;;;;;5037042;28;20676;-60
2022/03/17 08:19:51;;;;;;;54.77;32.70;;;6.80;99.90;;;;;;5040748;28;20443;-60
2022/03/17 08:22:17;;;;;;;59.23;31.13;;;6.80;99.90;;;;;;5047170;28;20183;-59
2022/03/17 08:24:43;;;;;;;67.30;31.70;;;6.90;99.90;;;;;;5049045;28;20422;-58
2022/03/17 08:27:08;;;;;;;60.20;31.30;;;6.90;99.90;;;;;;5045582;28;20820;-60
2022/03/17 08:29:34;;;;;;;53.60;29.60;;;6.90;99.90;;;;;;5049438;28;20164;-60
2022/03/17 08:32:00;;;;;;;56.40;31.80;;;7.00;99.90;;;;;;5042807;28;20174;-59
2022/03/17 08:34:26;;;;;;;60.03;31.57;;;7.00;99.90;;;;;;5038160;28;20589;-58
2022/03/17 08:36:56;;;;;;;62.83;33.10;;;7.10;99.90;;;;;;5047014;28;20421;-61
2022/03/17 08:39:22;;;;;;;68.10;36.67;;;7.10;99.90;;;;;;5048698;28;20508;-60
2022/03/17 08:41:48;;;;;;;71.43;34.77;;;7.10;99.90;;;;;;5043947;28;20447;-60
2022/03/17 08:44:13;;;;;;;68.23;36.53;;;7.20;99.90;;;;;;5048265;28;20433;-60
2022/03/17 08:49:24;;;;;;;73.03;37.33;;;7.20;99.90;;;;;;5041738;28;20797;-59
2022/03/17 08:51:53;;;;;;;68.30;35.90;;;7.20;99.90;;;;;;5044366;28;20418;-60
2022/03/17 08:54:22;;;;;;;73.67;36.17;;;7.20;99.90;;;;;;5046519;28;20574;-60
2022/03/17 08:56:48;;;;;;;65.53;34.07;;;7.20;99.90;;;;;;5042355;28;20520;-59
2022/03/17 08:59:14;;;;;;;72.83;34.83;;;7.30;99.90;;;;;;5055130;28;20465;-60
2022/03/17 09:01:39;;;;;;;63.87;35.23;;;7.30;99.90;;;;;;5045319;28;20457;-59
2022/03/17 09:04:05;;;;;;;74.93;37.20;;;7.40;99.90;;;;;;5035490;28;20175;-60
2022/03/17 09:06:31;;;;;;;63.63;35.13;;;7.40;99.90;;;;;;5063221;28;20217;-61
2022/03/17 09:08:57;;;;;;;67.83;35.40;;;7.40;99.90;;;;;;5046221;28;20442;-60
2022/03/17 09:11:23;;;;;;;68.87;38.13;;;7.40;99.90;;;;;;5040859;28;20206;-59
2022/03/17 09:13:49;;;;;;;71.43;40.00;;;7.40;99.90;;;;;;5046321;28;20549;-60
2022/03/17 09:16:18;;;;;;;69.93;37.27;;;7.50;99.90;;;;;;5039446;28;20186;-60
2022/03/17 09:18:44;;;;;;;62.57;33.70;;;7.60;99.90;;;;;;5036143;28;20458;-60
2022/03/17 09:21:10;;;;;;;72.17;37.20;;;7.60;99.90;;;;;;5041261;28;20778;-60
2022/03/17 09:23:35;;;;;;;62.80;35.43;;;7.70;99.90;;;;;;5037995;28;20194;-60
2022/03/17 09:26:01;;;;;;;66.83;36.97;;;7.70;99.90;;;;;;5042203;28;20206;-60
2022/03/17 09:28:27;;;;;;;69.83;37.23;;;7.70;99.90;;;;;;5043958;28;20789;-61
2022/03/17 09:30:54;;;;;;;71.07;38.17;;;7.80;99.90;;;;;;5044746;28;20171;-61
2022/03/17 09:33:25;;;;;;;72.93;37.37;;;7.80;99.90;;;;;;5036157;28;20433;-62
2022/03/17 09:35:52;;;;;;;70.97;36.30;;;7.80;99.90;;;;;;5036006;28;20449;-61
2022/03/17 09:38:18;;;;;;;69.33;36.07;;;7.90;99.90;;;;;;5033932;28;20533;-60
2022/03/17 09:40:44;;;;;;;65.30;36.23;;;7.90;99.90;;;;;;5043329;28;20529;-61
2022/03/17 09:43:19;;;;;;;67.60;36.97;;;8.00;99.90;;;;;;5044062;28;20354;-61
2022/03/17 09:45:46;;;;;;;69.80;35.90;;;8.10;99.90;;;;;;5041828;28;20501;-61
2022/03/17 09:48:14;;;;;;;68.30;37.30;;;8.10;99.90;;;;;;5041341;28;20453;-60
2022/03/17 09:50:41;;;;;;;74.13;35.40;;;8.20;99.90;;;;;;5040754;28;20468;-59
2022/03/17 09:53:08;;;;;;;68.43;35.67;;;8.20;99.90;;;;;;5042416;28;20508;-61
2022/03/17 09:55:35;;;;;;;65.77;36.77;;;8.30;99.90;;;;;;5040477;28;20525;-61
2022/03/17 09:58:03;;;;;;;83.00;38.70;;;8.30;99.90;;;;;;5062213;28;20515;-62
2022/03/17 10:00:48;;;;;;;70.00;37.63;;;8.40;99.90;;;;;;5037336;28;21315;-61
2022/03/17 10:03:25;;;;;;;65.33;35.53;;;8.50;99.90;;;;;;5047085;28;20980;-59
2022/03/17 10:05:52;;;;;;;63.70;36.80;;;8.60;99.90;;;;;;5043253;28;20527;-60
2022/03/17 10:08:20;;;;;;;68.33;37.87;;;8.70;99.90;;;;;;5037818;28;20449;-61
2022/03/17 10:10:46;;;;;;;69.57;37.27;;;8.80;99.90;;;;;;5056906;28;20437;-60
2022/03/17 10:13:14;;;;;;;66.00;36.83;;;8.90;99.90;;;;;;5040762;28;21065;-62
2022/03/17 10:15:47;;;;;;;68.00;36.80;;;9.00;99.90;;;;;;5040227;28;20968;-61
2022/03/17 10:18:37;;;;;;;64.03;36.83;;;9.10;99.90;;;;;;5039477;28;20453;-60
2022/03/17 10:21:11;;;;;;;64.03;35.40;;;9.20;99.90;;;;;;5034345;28;20449;-61
2022/03/17 10:23:50;;;;;;;72.23;37.50;;;9.30;99.90;;;;;;5038719;28;20429;-62
2022/03/17 10:26:34;;;;;;;57.00;33.60;;;9.40;99.90;;;;;;5038482;28;20461;-61
2022/03/17 10:29:26;;;;;;;66.83;34.33;;;9.50;99.90;;;;;;5036448;28;20506;-60
2022/03/17 10:32:01;;;;;;;64.90;35.50;;;9.60;99.90;;;;;;5035577;28;20459;-60
2022/03/17 10:34:48;;;;;;;62.90;35.77;;;9.70;99.90;;;;;;5034862;28;20438;-60
2022/03/17 10:37:16;;;;;;;59.60;34.00;;;9.80;99.90;;;;;;5038642;28;20452;-61
2022/03/17 10:39:48;;;;;;;69.70;35.70;;;9.90;99.90;;;;;;5047074;28;20944;-60
2022/03/17 10:42:19;;;;;;;62.90;36.50;;;9.90;99.90;;;;;;5044996;28;21025;-60
2022/03/17 10:44:50;;;;;;;65.43;34.67;;;10.00;99.90;;;;;;5047173;28;20438;-60
2022/03/17 10:47:44;;;;;;;76.00;36.50;;;10.10;99.90;;;;;;5045751;28;20479;-61
2022/03/17 10:50:18;;;;;;;59.63;33.63;;;10.20;99.90;;;;;;5040194;28;20436;-61
2022/03/17 10:52:57;;;;;;;61.50;33.63;;;10.40;99.60;;;;;;5056916;28;20465;-61
2022/03/17 10:55:24;;;;;;;66.17;35.23;;;10.50;99.20;;;;;;5046913;28;20424;-61
2022/03/17 10:57:53;;;;;;;60.23;34.57;;;10.70;99.10;;;;;;5044222;28;20456;-61
2022/03/17 11:00:23;;;;;;;61.70;34.13;;;10.80;98.00;;;;;;5045024;28;20461;-59
2022/03/17 11:02:50;;;;;;;65.23;33.30;;;10.90;94.40;;;;;;5039309;28;20444;-60
2022/03/17 11:05:17;;;;;;;64.70;32.60;;;11.00;93.50;;;;;;5045749;28;20434;-62
2022/03/17 11:07:45;;;;;;;58.07;32.97;;;11.10;93.20;;;;;;5042243;28;20453;-60
2022/03/17 11:10:15;;;;;;;58.70;32.80;;;11.20;94.20;;;;;;5045900;28;20474;-60
2022/03/17 11:12:42;;;;;;;56.13;33.67;;;11.30;93.50;;;;;;5042531;28;20437;-61
2022/03/17 11:15:08;;;;;;;60.37;33.20;;;11.40;92.20;;;;;;5047978;28;20429;-59
2022/03/17 11:17:41;;;;;;;59.00;33.80;;;11.50;92.10;;;;;;5044491;28;20488;-60
2022/03/17 11:20:10;;;;;;;58.80;31.73;;;11.60;90.80;;;;;;5045298;28;20426;-59
2022/03/17 11:22:36;;;;;;;54.20;32.67;;;11.70;90.40;;;;;;5039279;28;20445;-59
2022/03/17 11:25:25;;;;;;;52.10;31.77;;;11.80;90.30;;;;;;5047436;28;20434;-60
2022/03/17 11:27:57;;;;;;;55.60;33.30;;;11.90;89.20;;;;;;5044520;28;20461;-60
2022/03/17 11:30:49;;;;;;;61.03;32.87;;;12.00;89.70;;;;;;5035830;28;20441;-59
2022/03/17 11:33:44;;;;;;;56.83;31.67;;;12.10;88.30;;;;;;5039781;28;20439;-60
2022/03/17 11:36:10;;;;;;;60.60;32.80;;;12.30;86.70;;;;;;5041540;28;20962;-60
2022/03/17 11:38:43;;;;;;;57.37;31.33;;;12.50;85.80;;;;;;5041780;28;20485;-59
2022/03/17 11:41:24;;;;;;;55.70;30.90;;;12.60;80.90;;;;;;5041444;28;20180;-60
2022/03/17 11:43:49;;;;;;;50.20;30.10;;;12.80;82.20;;;;;;5040326;28;20604;-59
2022/03/17 11:46:18;;;;;;;53.17;30.10;;;12.90;82.50;;;;;;5038758;28;20248;-60
2022/03/17 11:48:46;;;;;;;59.03;29.00;;;13.00;81.50;;;;;;5040960;28;20725;-61
2022/03/17 11:51:16;;;;;;;49.23;29.10;;;13.20;80.00;;;;;;5046422;28;20432;-58
2022/03/17 11:53:50;;;;;;;48.27;28.80;;;13.20;77.80;;;;;;5038381;28;20429;-60
2022/03/17 11:56:41;;;;;;;49.57;29.43;;;13.30;77.40;;;;;;5039478;28;20464;-61
2022/03/17 11:59:07;;;;;;;44.50;27.03;;;13.40;74.50;;;;;;5036719;28;20464;-60
2022/03/17 12:01:39;;;;;;;48.37;28.57;;;13.40;73.50;;;;;;5033292;28;20434;-59
2022/03/17 12:04:06;;;;;;;52.70;28.80;;;13.40;73.30;;;;;;5037566;28;20441;-60
2022/03/17 12:06:36;;;;;;;42.83;26.83;;;13.50;74.20;;;;;;5036407;28;20449;-61
2022/03/17 12:09:04;;;;;;;40.40;22.33;;;13.60;74.60;;;;;;5037209;28;20437;-63
2022/03/17 12:11:43;;;;;;;40.53;22.70;;;13.60;74.60;;;;;;5039702;28;20476;-61
2022/03/17 12:14:17;;;;;;;41.93;21.40;;;13.70;74.30;;;;;;5039723;28;20487;-60
2022/03/17 12:16:50;;;;;;;41.07;22.77;;;13.80;74.10;;;;;;5036247;28;20484;-61
2022/03/17 12:19:27;;;;;;;38.77;20.80;;;13.80;74.70;;;;;;5038548;28;20461;-60
2022/03/17 12:22:00;;;;;;;34.30;20.83;;;13.90;74.80;;;;;;5039458;28;20571;-60
2022/03/17 12:24:35;;;;;;;26.87;15.60;;;14.00;74.40;;;;;;5037300;28;20437;-61
2022/03/17 12:27:10;;;;;;;30.93;15.50;;;14.00;74.20;;;;;;5035818;28;20453;-60
2022/03/17 12:29:37;;;;;;;25.03;14.07;;;14.10;73.40;;;;;;5035309;28;20542;-60
2022/03/17 12:32:12;;;;;;;34.33;13.47;;;14.20;72.90;;;;;;5036107;28;20422;-61
2022/03/17 12:34:38;;;;;;;23.77;14.23;;;14.20;71.40;;;;;;5037364;28;20418;-61
2022/03/17 12:37:06;;;;;;;20.70;11.73;;;14.30;70.70;;;;;;5043325;28;21061;-60
2022/03/17 12:39:34;;;;;;;19.43;11.30;;;14.40;71.00;;;;;;5038295;28;20453;-62
2022/03/17 12:42:01;;;;;;;18.33;11.90;;;14.40;69.40;;;;;;5037006;28;20434;-61
2022/03/17 12:44:27;;;;;;;26.27;12.70;;;14.50;68.50;;;;;;5034322;28;20921;-61
2022/03/17 12:46:55;;;;;;;26.93;12.17;;;14.50;67.90;;;;;;5036343;28;20472;-62
2022/03/17 12:49:21;;;;;;;24.23;10.80;;;14.60;67.70;;;;;;5039899;28;20422;-61
2022/03/17 12:51:51;;;;;;;23.70;12.43;;;14.70;67.20;;;;;;5038050;28;20429;-59
2022/03/17 12:54:17;;;;;;;19.50;11.90;;;14.70;67.10;;;;;;5048169;28;20483;-60